sensor_id;sensor_type;location;lat;lon;timestamp;P1;durP1;ratioP1;P2;durP2;ratioP2
48361;SDS011;34510;51.888;5.670;2022-09-23T00:04:31;13.13;;;6.85;;
48361;SDS011;34510;51.888;5.670;2022-09-23T00:09:33;11.98;;;6.95;;
48361;SDS011;34510;51.888;5.670;2022-09-23T00:14:36;12.45;;;6.93;;
48361;SDS011;34510;51.888;5.670;2022-09-23T00:19:39;9.95;;;6.72;;
48361;SDS011;34510;51.888;5.670;2022-09-23T00:24:41;10.07;;;6.47;;
48361;SDS011;34510;51.888;5.670;2022-09-23T00:29:42;15.02;;;7.55;;
48361;SDS011;34510;51.888;5.670;2022-09-23T00:34:44;11.32;;;8.05;;
48361;SDS011;34510;51.888;5.670;2022-09-23T00:39:47;10.55;;;7.55;;
48361;SDS011;34510;51.888;5.670;2022-09-23T00:44:51;21.10;;;9.00;;
48361;SDS011;34510;51.888;5.670;2022-09-23T00:55:08;17.50;;;7.70;;
48361;SDS011;34510;51.888;5.670;2022-09-23T01:00:13;18.70;;;7.45;;
48361;SDS011;34510;51.888;5.670;2022-09-23T01:05:15;11.55;;;8.23;;
48361;SDS011;34510;51.888;5.670;2022-09-23T01:10:18;13.60;;;7.65;;
48361;SDS011;34510;51.888;5.670;2022-09-23T01:15:21;11.13;;;8.15;;
48361;SDS011;34510;51.888;5.670;2022-09-23T01:36:39;13.77;;;8.50;;
48361;SDS011;34510;51.888;5.670;2022-09-23T01:47:03;12.98;;;9.35;;
48361;SDS011;34510;51.888;5.670;2022-09-23T01:52:15;15.10;;;9.82;;
48361;SDS011;34510;51.888;5.670;2022-09-23T01:57:33;12.27;;;8.88;;
48361;SDS011;34510;51.888;5.670;2022-09-23T02:02:55;14.40;;;9.13;;
48361;SDS011;34510;51.888;5.670;2022-09-23T02:08:02;16.88;;;9.73;;
48361;SDS011;34510;51.888;5.670;2022-09-23T02:13:16;15.45;;;9.45;;
48361;SDS011;34510;51.888;5.670;2022-09-23T02:18:27;22.23;;;10.32;;
48361;SDS011;34510;51.888;5.670;2022-09-23T02:23:38;14.25;;;9.40;;
48361;SDS011;34510;51.888;5.670;2022-09-23T02:28:54;16.33;;;9.55;;
48361;SDS011;34510;51.888;5.670;2022-09-23T02:39:41;16.20;;;10.20;;
48361;SDS011;34510;51.888;5.670;2022-09-23T02:44:45;15.82;;;10.02;;
48361;SDS011;34510;51.888;5.670;2022-09-23T02:49:47;17.90;;;10.70;;
48361;SDS011;34510;51.888;5.670;2022-09-23T02:54:50;14.90;;;10.43;;
48361;SDS011;34510;51.888;5.670;2022-09-23T02:59:52;23.80;;;10.13;;
48361;SDS011;34510;51.888;5.670;2022-09-23T03:05:14;16.13;;;11.70;;
48361;SDS011;34510;51.888;5.670;2022-09-23T03:10:29;12.57;;;9.63;;
48361;SDS011;34510;51.888;5.670;2022-09-23T03:21:22;14.43;;;9.88;;
48361;SDS011;34510;51.888;5.670;2022-09-23T03:26:28;17.25;;;10.23;;
48361;SDS011;34510;51.888;5.670;2022-09-23T03:31:33;17.58;;;11.00;;
48361;SDS011;34510;51.888;5.670;2022-09-23T03:37:12;18.45;;;10.95;;
48361;SDS011;34510;51.888;5.670;2022-09-23T03:47:24;14.07;;;9.63;;
48361;SDS011;34510;51.888;5.670;2022-09-23T03:52:27;12.95;;;10.30;;
48361;SDS011;34510;51.888;5.670;2022-09-23T03:57:29;12.45;;;9.40;;
48361;SDS011;34510;51.888;5.670;2022-09-23T04:02:32;24.23;;;10.43;;
48361;SDS011;34510;51.888;5.670;2022-09-23T04:07:34;16.48;;;10.20;;
48361;SDS011;34510;51.888;5.670;2022-09-23T04:12:36;20.02;;;10.35;;
48361;SDS011;34510;51.888;5.670;2022-09-23T04:17:38;16.08;;;10.55;;
48361;SDS011;34510;51.888;5.670;2022-09-23T04:22:41;17.05;;;10.35;;
48361;SDS011;34510;51.888;5.670;2022-09-23T04:27:43;24.98;;;12.60;;
48361;SDS011;34510;51.888;5.670;2022-09-23T04:32:45;15.77;;;9.68;;
48361;SDS011;34510;51.888;5.670;2022-09-23T04:37:46;16.80;;;10.63;;
48361;SDS011;34510;51.888;5.670;2022-09-23T04:42:49;18.52;;;9.95;;
48361;SDS011;34510;51.888;5.670;2022-09-23T04:47:50;17.55;;;9.80;;
48361;SDS011;34510;51.888;5.670;2022-09-23T04:52:52;13.55;;;9.40;;
48361;SDS011;34510;51.888;5.670;2022-09-23T04:57:56;12.88;;;8.75;;
48361;SDS011;34510;51.888;5.670;2022-09-23T05:02:58;15.45;;;9.48;;
48361;SDS011;34510;51.888;5.670;2022-09-23T05:08:00;20.17;;;10.20;;
48361;SDS011;34510;51.888;5.670;2022-09-23T05:13:02;14.00;;;9.07;;
48361;SDS011;34510;51.888;5.670;2022-09-23T05:18:03;13.70;;;9.52;;
48361;SDS011;34510;51.888;5.670;2022-09-23T05:23:05;10.90;;;8.93;;
48361;SDS011;34510;51.888;5.670;2022-09-23T05:28:07;16.35;;;9.45;;
48361;SDS011;34510;51.888;5.670;2022-09-23T05:33:10;18.77;;;9.70;;
48361;SDS011;34510;51.888;5.670;2022-09-23T05:38:11;23.80;;;10.05;;
48361;SDS011;34510;51.888;5.670;2022-09-23T05:43:16;16.98;;;10.05;;
48361;SDS011;34510;51.888;5.670;2022-09-23T05:48:18;15.27;;;9.50;;
48361;SDS011;34510;51.888;5.670;2022-09-23T05:53:20;13.65;;;9.73;;
48361;SDS011;34510;51.888;5.670;2022-09-23T05:58:22;21.67;;;10.63;;
48361;SDS011;34510;51.888;5.670;2022-09-23T06:03:24;15.40;;;8.57;;
48361;SDS011;34510;51.888;5.670;2022-09-23T06:08:26;23.35;;;9.73;;
48361;SDS011;34510;51.888;5.670;2022-09-23T06:13:28;16.90;;;8.68;;
48361;SDS011;34510;51.888;5.670;2022-09-23T06:18:31;15.93;;;9.38;;
48361;SDS011;34510;51.888;5.670;2022-09-23T06:23:32;18.48;;;8.32;;
48361;SDS011;34510;51.888;5.670;2022-09-23T06:28:39;14.38;;;8.88;;
48361;SDS011;34510;51.888;5.670;2022-09-23T06:33:42;13.38;;;8.68;;
48361;SDS011;34510;51.888;5.670;2022-09-23T06:38:45;14.38;;;8.20;;
48361;SDS011;34510;51.888;5.670;2022-09-23T06:43:49;19.13;;;8.93;;
48361;SDS011;34510;51.888;5.670;2022-09-23T06:48:51;17.88;;;10.32;;
48361;SDS011;34510;51.888;5.670;2022-09-23T06:53:52;13.70;;;9.30;;
48361;SDS011;34510;51.888;5.670;2022-09-23T06:58:55;20.52;;;9.05;;
48361;SDS011;34510;51.888;5.670;2022-09-23T07:03:57;18.83;;;9.48;;
48361;SDS011;34510;51.888;5.670;2022-09-23T07:09:00;12.57;;;9.57;;
48361;SDS011;34510;51.888;5.670;2022-09-23T07:14:01;15.23;;;10.45;;
48361;SDS011;34510;51.888;5.670;2022-09-23T07:19:03;25.23;;;10.18;;
48361;SDS011;34510;51.888;5.670;2022-09-23T07:24:05;15.82;;;9.82;;
48361;SDS011;34510;51.888;5.670;2022-09-23T07:29:10;19.90;;;9.80;;
48361;SDS011;34510;51.888;5.670;2022-09-23T07:34:14;18.35;;;10.10;;
48361;SDS011;34510;51.888;5.670;2022-09-23T07:39:15;17.35;;;10.25;;
48361;SDS011;34510;51.888;5.670;2022-09-23T07:44:17;18.63;;;9.52;;
48361;SDS011;34510;51.888;5.670;2022-09-23T07:49:19;18.35;;;9.98;;
48361;SDS011;34510;51.888;5.670;2022-09-23T07:54:21;15.15;;;9.10;;
48361;SDS011;34510;51.888;5.670;2022-09-23T07:59:25;15.45;;;10.43;;
48361;SDS011;34510;51.888;5.670;2022-09-23T08:04:29;20.58;;;9.20;;
48361;SDS011;34510;51.888;5.670;2022-09-23T08:09:39;16.50;;;9.85;;
48361;SDS011;34510;51.888;5.670;2022-09-23T08:14:45;16.00;;;9.93;;
48361;SDS011;34510;51.888;5.670;2022-09-23T08:19:47;17.50;;;9.15;;
48361;SDS011;34510;51.888;5.670;2022-09-23T08:24:49;18.27;;;9.20;;
48361;SDS011;34510;51.888;5.670;2022-09-23T08:29:54;18.00;;;9.18;;
48361;SDS011;34510;51.888;5.670;2022-09-23T08:34:57;14.77;;;10.13;;
48361;SDS011;34510;51.888;5.670;2022-09-23T08:40:00;23.98;;;9.88;;
48361;SDS011;34510;51.888;5.670;2022-09-23T08:45:03;16.67;;;10.43;;
48361;SDS011;34510;51.888;5.670;2022-09-23T08:50:52;13.00;;;10.18;;
48361;SDS011;34510;51.888;5.670;2022-09-23T08:55:48;14.50;;;10.18;;
48361;SDS011;34510;51.888;5.670;2022-09-23T09:00:58;14.65;;;8.55;;
48361;SDS011;34510;51.888;5.670;2022-09-23T09:06:13;15.73;;;8.60;;
48361;SDS011;34510;51.888;5.670;2022-09-23T09:11:22;14.65;;;9.27;;
48361;SDS011;34510;51.888;5.670;2022-09-23T09:22:02;12.60;;;8.30;;
48361;SDS011;34510;51.888;5.670;2022-09-23T09:27:10;12.50;;;9.05;;
48361;SDS011;34510;51.888;5.670;2022-09-23T09:32:21;18.30;;;9.00;;
48361;SDS011;34510;51.888;5.670;2022-09-23T09:37:41;11.60;;;8.43;;
48361;SDS011;34510;51.888;5.670;2022-09-23T09:42:48;18.38;;;9.40;;
48361;SDS011;34510;51.888;5.670;2022-09-23T09:53:13;17.00;;;11.00;;
48361;SDS011;34510;51.888;5.670;2022-09-23T09:58:16;15.98;;;9.13;;
48361;SDS011;34510;51.888;5.670;2022-09-23T10:03:25;14.77;;;8.75;;
48361;SDS011;34510;51.888;5.670;2022-09-23T10:08:34;13.40;;;7.90;;
48361;SDS011;34510;51.888;5.670;2022-09-23T10:13:38;14.43;;;9.32;;
48361;SDS011;34510;51.888;5.670;2022-09-23T10:23:49;14.63;;;8.85;;
48361;SDS011;34510;51.888;5.670;2022-09-23T10:28:53;10.48;;;8.73;;
48361;SDS011;34510;51.888;5.670;2022-09-23T10:33:57;12.95;;;9.02;;
48361;SDS011;34510;51.888;5.670;2022-09-23T10:39:01;13.00;;;9.27;;
48361;SDS011;34510;51.888;5.670;2022-09-23T10:55:39;13.35;;;9.27;;
48361;SDS011;34510;51.888;5.670;2022-09-23T11:12:14;16.05;;;8.27;;
48361;SDS011;34510;51.888;5.670;2022-09-23T11:28:15;13.30;;;7.97;;
48361;SDS011;34510;51.888;5.670;2022-09-23T11:39:05;14.70;;;8.32;;
48361;SDS011;34510;51.888;5.670;2022-09-23T11:44:32;19.35;;;7.78;;
48361;SDS011;34510;51.888;5.670;2022-09-23T11:49:41;15.63;;;8.57;;
48361;SDS011;34510;51.888;5.670;2022-09-23T11:54:56;15.43;;;9.27;;
48361;SDS011;34510;51.888;5.670;2022-09-23T12:00:16;14.60;;;9.40;;
48361;SDS011;34510;51.888;5.670;2022-09-23T12:05:20;14.00;;;6.45;;
48361;SDS011;34510;51.888;5.670;2022-09-23T12:10:26;16.60;;;7.65;;
48361;SDS011;34510;51.888;5.670;2022-09-23T12:15:58;14.73;;;6.78;;
48361;SDS011;34510;51.888;5.670;2022-09-23T12:21:10;11.07;;;7.30;;
48361;SDS011;34510;51.888;5.670;2022-09-23T12:26:40;13.60;;;6.78;;
48361;SDS011;34510;51.888;5.670;2022-09-23T12:31:44;15.77;;;6.95;;
48361;SDS011;34510;51.888;5.670;2022-09-23T12:36:47;8.10;;;5.80;;
48361;SDS011;34510;51.888;5.670;2022-09-23T12:41:52;12.38;;;8.38;;
48361;SDS011;34510;51.888;5.670;2022-09-23T13:02:36;10.80;;;5.88;;
48361;SDS011;34510;51.888;5.670;2022-09-23T13:07:42;9.18;;;5.97;;
48361;SDS011;34510;51.888;5.670;2022-09-23T13:12:47;12.60;;;6.60;;
48361;SDS011;34510;51.888;5.670;2022-09-23T13:17:50;12.80;;;6.05;;
48361;SDS011;34510;51.888;5.670;2022-09-23T13:27:54;7.57;;;4.80;;
48361;SDS011;34510;51.888;5.670;2022-09-23T13:38:23;13.45;;;4.80;;
48361;SDS011;34510;51.888;5.670;2022-09-23T13:43:28;10.10;;;4.63;;
48361;SDS011;34510;51.888;5.670;2022-09-23T13:48:41;8.82;;;4.60;;
48361;SDS011;34510;51.888;5.670;2022-09-23T13:53:50;11.68;;;5.07;;
48361;SDS011;34510;51.888;5.670;2022-09-23T14:04:28;12.45;;;5.35;;
48361;SDS011;34510;51.888;5.670;2022-09-23T14:09:29;12.13;;;7.05;;
48361;SDS011;34510;51.888;5.670;2022-09-23T14:14:32;8.95;;;5.85;;
48361;SDS011;34510;51.888;5.670;2022-09-23T14:19:37;7.93;;;4.72;;
48361;SDS011;34510;51.888;5.670;2022-09-23T14:24:39;12.38;;;6.03;;
48361;SDS011;34510;51.888;5.670;2022-09-23T14:29:42;9.98;;;4.82;;
48361;SDS011;34510;51.888;5.670;2022-09-23T14:40:48;18.65;;;5.68;;
48361;SDS011;34510;51.888;5.670;2022-09-23T14:45:37;8.77;;;5.78;;
48361;SDS011;34510;51.888;5.670;2022-09-23T14:50:50;14.02;;;7.15;;
48361;SDS011;34510;51.888;5.670;2022-09-23T15:06:41;15.50;;;6.30;;
48361;SDS011;34510;51.888;5.670;2022-09-23T15:11:51;15.50;;;6.13;;
48361;SDS011;34510;51.888;5.670;2022-09-23T15:16:56;11.07;;;6.25;;
48361;SDS011;34510;51.888;5.670;2022-09-23T15:22:00;13.82;;;6.85;;
48361;SDS011;34510;51.888;5.670;2022-09-23T15:27:08;10.55;;;5.53;;
48361;SDS011;34510;51.888;5.670;2022-09-23T15:32:11;10.38;;;5.93;;
48361;SDS011;34510;51.888;5.670;2022-09-23T15:37:13;26.73;;;6.93;;
48361;SDS011;34510;51.888;5.670;2022-09-23T15:42:15;10.57;;;6.75;;
48361;SDS011;34510;51.888;5.670;2022-09-23T15:47:18;15.27;;;6.55;;
48361;SDS011;34510;51.888;5.670;2022-09-23T15:52:22;26.70;;;6.30;;
48361;SDS011;34510;51.888;5.670;2022-09-23T15:57:24;8.30;;;5.72;;
48361;SDS011;34510;51.888;5.670;2022-09-23T16:02:26;10.40;;;6.57;;
48361;SDS011;34510;51.888;5.670;2022-09-23T16:07:29;9.05;;;6.30;;
48361;SDS011;34510;51.888;5.670;2022-09-23T16:12:31;19.25;;;7.28;;
48361;SDS011;34510;51.888;5.670;2022-09-23T16:17:32;11.77;;;6.72;;
48361;SDS011;34510;51.888;5.670;2022-09-23T16:22:35;15.38;;;8.05;;
48361;SDS011;34510;51.888;5.670;2022-09-23T16:27:40;12.02;;;7.45;;
48361;SDS011;34510;51.888;5.670;2022-09-23T16:32:42;12.60;;;8.27;;
48361;SDS011;34510;51.888;5.670;2022-09-23T16:37:43;14.05;;;9.10;;
48361;SDS011;34510;51.888;5.670;2022-09-23T16:42:47;14.13;;;8.70;;
48361;SDS011;34510;51.888;5.670;2022-09-23T16:47:50;11.77;;;8.68;;
48361;SDS011;34510;51.888;5.670;2022-09-23T16:52:52;22.85;;;9.38;;
48361;SDS011;34510;51.888;5.670;2022-09-23T16:57:56;12.27;;;8.15;;
48361;SDS011;34510;51.888;5.670;2022-09-23T17:02:58;19.30;;;9.73;;
48361;SDS011;34510;51.888;5.670;2022-09-23T17:08:20;13.27;;;8.63;;
48361;SDS011;34510;51.888;5.670;2022-09-23T17:13:22;17.30;;;9.73;;
48361;SDS011;34510;51.888;5.670;2022-09-23T17:18:26;15.48;;;10.00;;
48361;SDS011;34510;51.888;5.670;2022-09-23T17:23:30;15.45;;;10.13;;
48361;SDS011;34510;51.888;5.670;2022-09-23T17:28:34;19.98;;;10.82;;
48361;SDS011;34510;51.888;5.670;2022-09-23T17:33:37;19.40;;;10.98;;
48361;SDS011;34510;51.888;5.670;2022-09-23T17:38:42;30.45;;;12.27;;
48361;SDS011;34510;51.888;5.670;2022-09-23T17:43:45;16.13;;;11.25;;
48361;SDS011;34510;51.888;5.670;2022-09-23T17:48:48;19.55;;;12.70;;
48361;SDS011;34510;51.888;5.670;2022-09-23T17:53:56;20.80;;;11.05;;
48361;SDS011;34510;51.888;5.670;2022-09-23T17:58:58;24.73;;;12.90;;
48361;SDS011;34510;51.888;5.670;2022-09-23T18:04:02;19.38;;;12.30;;
48361;SDS011;34510;51.888;5.670;2022-09-23T18:09:08;19.00;;;13.32;;
48361;SDS011;34510;51.888;5.670;2022-09-23T18:14:17;20.08;;;12.50;;
48361;SDS011;34510;51.888;5.670;2022-09-23T18:19:26;22.77;;;13.32;;
48361;SDS011;34510;51.888;5.670;2022-09-23T18:24:28;24.48;;;13.68;;
48361;SDS011;34510;51.888;5.670;2022-09-23T18:34:38;26.88;;;15.55;;
48361;SDS011;34510;51.888;5.670;2022-09-23T18:39:40;24.70;;;14.95;;
48361;SDS011;34510;51.888;5.670;2022-09-23T18:44:42;27.13;;;15.18;;
48361;SDS011;34510;51.888;5.670;2022-09-23T18:49:44;25.58;;;15.88;;
48361;SDS011;34510;51.888;5.670;2022-09-23T18:55:06;28.38;;;16.50;;
48361;SDS011;34510;51.888;5.670;2022-09-23T19:00:08;27.02;;;17.63;;
48361;SDS011;34510;51.888;5.670;2022-09-23T19:05:13;29.55;;;18.85;;
48361;SDS011;34510;51.888;5.670;2022-09-23T19:10:17;43.25;;;19.33;;
48361;SDS011;34510;51.888;5.670;2022-09-23T19:15:19;24.45;;;17.30;;
48361;SDS011;34510;51.888;5.670;2022-09-23T19:20:24;27.00;;;17.52;;
48361;SDS011;34510;51.888;5.670;2022-09-23T19:25:26;27.33;;;17.40;;
48361;SDS011;34510;51.888;5.670;2022-09-23T19:30:27;30.80;;;18.55;;
48361;SDS011;34510;51.888;5.670;2022-09-23T19:35:29;32.40;;;17.48;;
48361;SDS011;34510;51.888;5.670;2022-09-23T19:40:33;31.75;;;16.58;;
48361;SDS011;34510;51.888;5.670;2022-09-23T19:45:37;28.73;;;16.90;;
48361;SDS011;34510;51.888;5.670;2022-09-23T19:50:39;28.23;;;17.65;;
48361;SDS011;34510;51.888;5.670;2022-09-23T19:55:41;32.65;;;17.60;;
48361;SDS011;34510;51.888;5.670;2022-09-23T20:00:44;28.73;;;18.35;;
48361;SDS011;34510;51.888;5.670;2022-09-23T20:05:55;34.50;;;19.42;;
48361;SDS011;34510;51.888;5.670;2022-09-23T20:10:57;29.45;;;19.35;;
48361;SDS011;34510;51.888;5.670;2022-09-23T20:15:59;28.17;;;20.02;;
48361;SDS011;34510;51.888;5.670;2022-09-23T20:21:01;29.20;;;17.75;;
48361;SDS011;34510;51.888;5.670;2022-09-23T20:26:04;24.63;;;16.52;;
48361;SDS011;34510;51.888;5.670;2022-09-23T20:31:25;27.92;;;18.02;;
48361;SDS011;34510;51.888;5.670;2022-09-23T20:36:29;28.95;;;18.63;;
48361;SDS011;34510;51.888;5.670;2022-09-23T20:41:31;24.80;;;17.17;;
48361;SDS011;34510;51.888;5.670;2022-09-23T20:46:37;24.52;;;17.25;;
48361;SDS011;34510;51.888;5.670;2022-09-23T20:51:39;29.75;;;18.17;;
48361;SDS011;34510;51.888;5.670;2022-09-23T20:56:41;26.67;;;18.88;;
48361;SDS011;34510;51.888;5.670;2022-09-23T21:01:42;26.20;;;16.85;;
48361;SDS011;34510;51.888;5.670;2022-09-23T21:06:44;26.92;;;17.30;;
48361;SDS011;34510;51.888;5.670;2022-09-23T21:11:46;30.42;;;19.10;;
48361;SDS011;34510;51.888;5.670;2022-09-23T21:16:48;30.58;;;19.02;;
48361;SDS011;34510;51.888;5.670;2022-09-23T21:21:50;31.05;;;19.42;;
48361;SDS011;34510;51.888;5.670;2022-09-23T21:26:52;31.85;;;21.60;;
48361;SDS011;34510;51.888;5.670;2022-09-23T21:31:54;26.33;;;18.55;;
48361;SDS011;34510;51.888;5.670;2022-09-23T21:36:56;32.03;;;21.33;;
48361;SDS011;34510;51.888;5.670;2022-09-23T21:41:58;29.05;;;19.48;;
48361;SDS011;34510;51.888;5.670;2022-09-23T21:46:59;32.95;;;23.20;;
48361;SDS011;34510;51.888;5.670;2022-09-23T21:52:01;32.53;;;21.20;;
48361;SDS011;34510;51.888;5.670;2022-09-23T21:57:03;29.13;;;20.30;;
48361;SDS011;34510;51.888;5.670;2022-09-23T22:02:05;32.15;;;21.13;;
48361;SDS011;34510;51.888;5.670;2022-09-23T22:07:07;32.03;;;20.05;;
48361;SDS011;34510;51.888;5.670;2022-09-23T22:12:09;29.05;;;20.52;;
48361;SDS011;34510;51.888;5.670;2022-09-23T22:17:13;29.90;;;21.58;;
48361;SDS011;34510;51.888;5.670;2022-09-23T22:22:16;32.53;;;22.77;;
48361;SDS011;34510;51.888;5.670;2022-09-23T22:27:18;33.10;;;23.13;;
48361;SDS011;34510;51.888;5.670;2022-09-23T22:32:20;32.10;;;21.20;;
48361;SDS011;34510;51.888;5.670;2022-09-23T22:37:34;37.17;;;23.65;;
48361;SDS011;34510;51.888;5.670;2022-09-23T22:42:37;39.28;;;23.58;;
48361;SDS011;34510;51.888;5.670;2022-09-23T22:47:41;37.72;;;22.38;;
48361;SDS011;34510;51.888;5.670;2022-09-23T22:52:46;38.85;;;24.23;;
48361;SDS011;34510;51.888;5.670;2022-09-23T22:57:48;38.55;;;24.48;;
48361;SDS011;34510;51.888;5.670;2022-09-23T23:02:51;40.53;;;24.55;;
48361;SDS011;34510;51.888;5.670;2022-09-23T23:07:52;39.58;;;24.33;;
48361;SDS011;34510;51.888;5.670;2022-09-23T23:12:54;36.78;;;24.25;;
48361;SDS011;34510;51.888;5.670;2022-09-23T23:17:57;39.72;;;24.08;;
48361;SDS011;34510;51.888;5.670;2022-09-23T23:23:00;39.47;;;25.58;;
48361;SDS011;34510;51.888;5.670;2022-09-23T23:28:02;36.78;;;23.95;;
48361;SDS011;34510;51.888;5.670;2022-09-23T23:33:06;38.45;;;24.25;;
48361;SDS011;34510;51.888;5.670;2022-09-23T23:38:07;39.72;;;23.83;;
48361;SDS011;34510;51.888;5.670;2022-09-23T23:43:12;38.58;;;23.05;;
48361;SDS011;34510;51.888;5.670;2022-09-23T23:48:15;36.80;;;24.00;;
48361;SDS011;34510;51.888;5.670;2022-09-23T23:53:16;34.20;;;24.05;;
48361;SDS011;34510;51.888;5.670;2022-09-23T23:58:19;37.88;;;24.08;;
